Airfield :
LOGIN :

Register | Disclaimer

   EN    FR    IT 

 










Legend :    VFR   Marginal VFR   IFR   Intensive IFR   Very Intensive IFR
Visi :
Ceiling :
>= 8 km
>= 3000ft
5 to 8 km
1000 to 3000 ft
1500m to 5 km
500 to 1000 ft
800 to 1500m
200 to 500 ft
< 800m
< 200 ft
Symbols :   Thunderstorms  Fog  Heavy snow  Heavy precipitations  Wind > 20 kt
SIGMETs :     Misc.  Thunderstorms  Icing  Turbulence  Mountain Waves  Volcanic Ashes






- Airport Elevation : 458 ft


LFSI - St-Dizier

CURRENT METAR :
  • 131200Z AUTO 24010KT 190V270 CAVOK 30/14 Q1014

EXPIRED METARs :
  • 131130Z AUTO 20008KT 170V240 CAVOK 30/14 Q1014
  • 131100Z AUTO 21007KT 150V300 CAVOK 29/15 Q1014
  • 131030Z AUTO 23008KT 190V280 CAVOK 28/15 Q1014
  • 131000Z AUTO 25008KT 170V300 CAVOK 27/15 Q1014
  • 130930Z AUTO 23009KT 190V270 CAVOK 27/15 Q1014
  • 130900Z AUTO 22007KT 190V260 CAVOK 26/16 Q1014

TAF TAF LFSI
Valid from the 13 at 09:00 until the 14 at 09:00 UTC


130800Z 1309/1409 25010KT 9999 FEW030
TEMPO 1312/1318 FEW060CB SCT080
TEMPO 1320/1409 6000 SHRA BKN050TCU BKN080 BKN140



MET'MAP, your aeronautical weather chart ! - Copyright ORBIFLY December 2007 - Disclaimer

ORBIFLY MET'MAP TEAM :

Programming & Development : Alexandra Zaïnal
Concept & original design : Baudouin d'Aumeries
Assistance for programming : Marc-Olivier Méhu
Technical & hardware support : Manuel Goepfert

Contact : metmap@orbifly.com




SOURCES & CREDITS :

   NOAA